Antelope Valley, Nevada Weather observations

Data are for 10 minute period ending at time listed.
 Day   Time   Solar   Ave.   Ave.  Ave.  Vector  Max.   Baro.   Total    
  of    of     Rad.   Air    Rel.  Wind   Wind   Wind  Press.  Precip.   
Year   Day            Temp.  Hum.  Speed  Dir.   Gust                    
2017   (PST)  Kw/m2    F      %     mph   deg.    mph    mb.     in.     
-------------------------------------------------------------------------
 117    6:30   0.23   38.6    74    2.3   134     3.7   847.5    0.00 
 117    6:40   0.25   39.7    73    3.3    24     6.8   847.6    0.00 
 117    6:50   0.29   42.1    68    1.2    76     2.1   847.6    0.00 
 117    7:00   0.33   43.6    60    2.6   117     4.6   847.6    0.00 
 117    7:10   0.36   44.8    50    1.7    93     4.9   847.9    0.00 
 117    7:20   0.36   45.1    48    3.0    10     6.2   847.9    0.00 
 117    7:30   0.34   44.3    48    2.7   322     6.1   848.0    0.00 
 117    7:40   0.36   44.7    50    4.0   351     7.6   848.3    0.00 
 117    7:50   0.27   44.0    52    4.8    56     8.3   848.4    0.00 
 117    8:00   0.20   43.3    55    4.0    53     6.1   848.5    0.00 
 117    8:10   0.17   42.9    56    4.6    38    13.9   848.5    0.00 
 117    8:20   0.21   43.3    49    5.1   197    10.0   848.4    0.00 
 117    8:30   0.28   43.6    49    7.1   236    12.3   848.3    0.00 
 117    8:40   0.48   45.1    42    5.3   257    14.2   848.2    0.00 
 117    8:50   0.48   45.3    41    8.5   246    14.9   848.1    0.00 
 117    9:00   0.45   45.1    45    9.8   247    16.2   848.2    0.00 
 117    9:10   0.72   46.2    44    9.6   252    14.4   848.2    0.00 
 117    9:20   0.81   46.8    39    5.6   240    11.5   848.3    0.00 
 117    9:30   0.86   47.4    40    7.8   254    15.3   848.4    0.00 
 117    9:40   0.50   47.3    36    6.6   284    16.2   848.4    0.00 
 117    9:50   0.65   46.7    36    4.4   267    11.0   848.5    0.00 
 117   10:00   0.94   47.8    35    4.7   280    13.0   848.6    0.00 
 117   10:10   0.71   48.6    38    5.5   316    12.2   848.6    0.00 
 117   10:20   0.92   48.7    42    7.9   344    13.3   848.7    0.00 
 117   10:30   0.74   48.6    37    9.1   328    15.7   848.8    0.00 
 117   10:40   0.82   48.6    34   10.7   303    18.7   848.6    0.00 
 117   10:50   1.01   48.4    36   10.3   278    17.3   848.6    0.00 
 117   11:00   0.98   49.1    36    9.8   292    18.9   848.6    0.00 
 117   11:10   0.98   49.5    36   11.2   272    21.2   848.7    0.00 
 117   11:20   0.95   48.9    33   12.4   276    18.8   848.9    0.00 
 117   11:30   0.99   48.8    34   10.4   271    17.3   848.5    0.00 
 117   11:40   0.98   49.5    34    7.5   307    15.2   848.3    0.00 
 117   11:50   1.02   50.0    34   10.5   274    16.1   848.2    0.00 
 117   12:00   0.94   49.8    32    8.6   310    15.7   848.3    0.00 
 117   12:10   0.69   49.5    33    9.8   276    17.5   848.3    0.00 
 117   12:20   0.69   49.3    30    9.5   307    17.4   848.2    0.00 
 117   12:30   0.72   49.7    32   11.9   277    22.5   848.2    0.00 
 117   12:40   0.69   49.7    30    8.2   306    22.0   848.3    0.00 
 117   12:50   0.60   50.3    30   12.0   297    20.5   848.3    0.00 
 117   13:00   0.76   50.4    29   15.5   302    21.9   848.3    0.00 
 117   13:10   0.83   50.1    27   13.2   288    19.0   848.2    0.00 
 117   13:20   0.87   51.0    28   13.2   320    21.8   848.1    0.00 
 117   13:30   0.83   50.6    28   11.3   315    18.7   848.1    0.00 
 117   13:40   0.89   51.3    27   12.0   317    20.8   848.1    0.00 
 117   13:50   0.82   52.1    27   11.2   313    25.4   848.2    0.00 
 117   14:00   0.85   51.4    25   12.6   306    21.4   848.2    0.00 
 117   14:10   0.82   51.4    26   11.7   301    22.1   848.2    0.00 
 117   14:20   0.77   51.1    26   12.3   290    19.1   848.0    0.00 
 117   14:30   0.80   51.9    26   14.7   306    22.7   847.9    0.00 
 117   14:40   0.77   51.5    26   14.0   294    25.7   848.0    0.00 
 117   14:50   0.73   51.4    26   14.9   306    20.9   848.1    0.00 
 117   15:00   0.72   51.8    28   13.0   306    20.2   848.0    0.00 
 117   15:10   0.71   51.5    29   16.9   318    23.8   848.0    0.00 
 117   15:20   0.47   50.5    30   15.4   320    24.1   847.9    0.00 
 117   15:30   0.48   49.7    33   11.5   337    22.4   847.8    0.00 
 117   15:40   0.59   50.2    33   13.8   346    22.7   847.7    0.00 
 117   15:50   0.56   50.3    34   11.8   347    18.6   847.7    0.00 
 117   16:00   0.54   50.3    34   13.1   333    19.4   847.8    0.00 
 117   16:10   0.50   50.1    35   12.4   341    17.7   847.9    0.00 
 117   16:20   0.45   49.5    34   10.7   354    17.0   848.0    0.00 
 117   16:30   0.46   49.6    33   12.1   351    18.9   848.2    0.00 
 117   16:40   0.41   49.3    34   11.3   337    17.5   848.3    0.00 
 117   16:50   0.35   48.9    34    9.6   353    15.9   848.3    0.00 
 117   17:00   0.32   48.6    34   10.2   339    15.6   848.4    0.00 
 117   17:10   0.28   48.4    34    8.2     0    15.3   848.4    0.00 
 117   17:20   0.24   48.0    34    9.2   349    15.2   848.4    0.00 
 117   17:30   0.20   47.5    35    9.6   357    15.3   848.4    0.00 
 117   17:40   0.17   46.7    34   11.7     1    16.5   848.4    0.00 
 117   17:50   0.14   46.2    35   11.9   355    16.9   848.3    0.00 
 117   18:00   0.11   45.6    36   11.2   360    17.0   848.3    0.00 
 117   18:10   0.09   44.9    35   11.8     1    15.8   848.3    0.00 
 117   18:20   0.06   44.1    37   10.7   355    15.9   848.3    0.00 
 117   18:30   0.04   43.0    39    8.9   359    13.7   848.2    0.00 
 117   18:40   0.01   41.9    41    8.9    10    12.7   848.1    0.00 
 117   18:50   0.01   40.8    43    7.9    10    11.6   848.2    0.00 
 117   19:00   0.00   40.3    42    8.4    11    11.5   848.2    0.00 
 117   19:10   0.00   39.5    45    7.1    16    10.9   848.1    0.00 
 117   19:20   0.00   38.5    47    6.5    20     9.4   848.1    0.00 
 117   19:30   0.00   38.3    46    5.8    28     9.1   848.2    0.00 
 117   19:40   0.00   36.6    53    2.2   126     4.3   848.4    0.00 
 117   19:50   0.00   34.0    61    4.3   122     6.9   848.4    0.00 
 117   20:00   0.00   33.6    62    2.7   156     3.6   848.5    0.00 
 117   20:10   0.00   34.4    57    2.1   126     3.0   848.5    0.00 
 117   20:20   0.00   34.9    55    1.9   104     4.4   848.6    0.00 
 117   20:30   0.00   35.0    54    3.4   134     5.6   848.7    0.00 
 117   20:40   0.00   33.4    61    5.1   122     6.6   848.7    0.00 
 117   20:50   0.00   32.8    62    4.9   125     6.1   848.8    0.00 
 117   21:00   0.00   33.6    58    4.0   181     4.6   848.8    0.00 
 117   21:10   0.00   34.9    53    4.0   165     4.5   848.9    0.00 
 117   21:20   0.00   33.4    59    4.1   159     4.8   848.9    0.00 
 117   21:30   0.00   30.1    70    4.1   134     5.3   848.9    0.00 
 117   21:40   0.00   29.2    74    3.4   107     4.6   849.1    0.00 
 117   21:50   0.00   29.8    70    2.6   119     3.6   849.2    0.00 
 117   22:00   0.00   28.7    73    3.2   111     4.5   849.2    0.00 
 117   22:10   0.00   28.3    74    4.0   101     5.8   849.1    0.00 
 117   22:20   0.00   28.6    73    3.9    98     5.3   849.0    0.00 
 117   22:30   0.00   28.4    74    4.2    94     5.6   849.0    0.00 
 117   22:40   0.00   27.8    75    4.2    95     5.0   849.1    0.00 
 117   22:50   0.00   27.7    76    3.9    90     4.6   849.2    0.00 
 117   23:00   0.00   27.2    75    3.0   175     6.0   849.3    0.00 
 117   23:10   0.00   25.4    80    3.1   187     4.9   849.3    0.00 
 117   23:20   0.00   26.5    80    2.9   165     4.5   849.4    0.00 
 117   23:30   0.00   27.2    78    2.5   149     4.8   849.5    0.00 
 117   23:40   0.00   26.8    80    2.4   249     5.0   849.6    0.00 
 117   23:50   0.00   27.2    80    1.1   205     3.2   849.7    0.00 
 118    0:00   0.00   27.3    80    2.0   278     4.0   849.8    0.00 
 118    0:10   0.00   27.8    80    2.1   258     3.1   849.8    0.00 
 118    0:20   0.00   28.4    79    1.6    56     3.1   850.0    0.00 
 118    0:30   0.00   29.9    72    1.8    36     4.1   849.9    0.00 
 118    0:40   0.00   30.7    72    3.8    57     5.2   849.8    0.00 
 118    0:50   0.00   31.2    70    3.6    20     5.8   849.7    0.00 
 118    1:00   0.00   31.2    73    2.9    40     4.5   849.6    0.00 
 118    1:10   0.00   30.6    76    2.5    48     3.9   849.6    0.00 
 118    1:20   0.00   30.5    78    3.0    64     4.8   849.6    0.00 
 118    1:30   0.00   31.0    77    3.7    76     4.5   849.5    0.00 
 118    1:40   0.00   31.2    77    2.0    84     3.7   849.5    0.00 
 118    1:50   0.00   31.5    76    0.0     0     0.0   849.6    0.00 
 118    2:00   0.00   31.2    77    0.7   292     2.9   849.6    0.00 
 118    2:10   0.00   30.1    79    2.1   324     3.0   849.7    0.00 
 118    2:20   0.00   28.8    81    2.9    20     3.7   849.9    0.00 
 118    2:30   0.00   28.1    80    2.6    34     4.4   849.9    0.00 
 118    2:40   0.00   27.7    81    2.7    88     4.4   850.0    0.00 
 118    2:50   0.00   26.8    84    4.0   118     5.1   850.0    0.00 
 118    3:00   0.00   27.5    81    2.9   115     4.5   849.9    0.00 
 118    3:10   0.00   26.3    80    1.7    88     3.1   850.0    0.00 
 118    3:20   0.00   25.5    84    0.8   101     2.6   850.0    0.00 
 118    3:30   0.00   25.3    84    0.4   335     2.9   850.0    0.00 
 118    3:40   0.00   25.5    85    1.3   343     2.9   850.0    0.00 
 118    3:50   0.00   25.8    85    1.3    58     3.2   850.0    0.00 
 118    4:00   0.00   25.7    87    2.2    42     7.3   850.2    0.00 
 118    4:10   0.00   27.5    84    3.9    16     7.4   850.4    0.00 
 118    4:20   0.00   27.8    84    2.9   350     4.5   850.5    0.00 
 118    4:30   0.00   29.1    85    4.4   331     6.6   850.5    0.00 
 118    4:40   0.00   29.3    86    4.1   326     5.5   850.5    0.00 
 118    4:50   0.00   29.3    87    4.0   328     5.1   850.5    0.00 
 118    5:00   0.00   29.4    87    3.7   331     5.5   850.5    0.00 
 118    5:10   0.01   29.1    87    2.3    20     4.2   850.6    0.00 
 118    5:20   0.02   29.3    88    2.0   137     3.8   850.6    0.00 
 118    5:30   0.03   29.6    87    0.3   168     2.1   850.7    0.00 
 118    5:40   0.03   30.0    86    0.6   142     1.7   850.7    0.00 
 118    5:50   0.08   30.8    84    0.8   312     2.7   850.7    0.00 
 118    6:00   0.12   31.2    84    0.6   305     2.5   850.8    0.00 
 118    6:10   0.16   31.9    82    2.0    59     3.0   850.9    0.00 
 118    6:20   0.22   33.5    79    1.4    65     2.7   851.1    0.00 

Return to Antelope Valley graphs page.


Western Regional Climate Center,wrcc@dri.edu